Terminal Aerodrome Forecast
Issued by NWS

Home | Current Version | Previous Version | Text Only | Print | Product List | Glossary Off
Versions: 1 2 3 4 5 6 7 8 9 10 11 12 13 14 15 16 17 18 19 20 21 22

263
FTUS43 KBIS 240407 AAB
TAFMOT
TAF AMD
KMOT 240407Z 2404/2424 36007KT P6SM FEW250
     FM240500 30006KT P6SM BKN040
     FM241100 31005KT 4SM BR BKN025
     FM241600 31006KT P6SM SCT050=

USA.gov is the U.S. government's official web portal to all federal, state and local government web resources and services.